sensor_id;sensor_type;location;lat;lon;timestamp;noise_LAeq;noise_LA_min;noise_LA_max;noise_LA01;noise_LA95
74234;Laerm;62591;55.764;37.718;2022-12-18T00:00:16;43.85;37.63;67.79;;
74234;Laerm;62591;55.764;37.718;2022-12-18T00:02:45;43.81;38.23;66.50;;
74234;Laerm;62591;55.764;37.718;2022-12-18T00:05:13;52.36;38.18;84.87;;
74234;Laerm;62591;55.764;37.718;2022-12-18T00:07:42;45.20;39.20;61.93;;
74234;Laerm;62591;55.764;37.718;2022-12-18T00:10:10;44.05;38.96;61.17;;
74234;Laerm;62591;55.764;37.718;2022-12-18T00:12:41;51.34;40.98;76.46;;
74234;Laerm;62591;55.764;37.718;2022-12-18T00:15:11;47.31;41.06;60.92;;
74234;Laerm;62591;55.764;37.718;2022-12-18T00:17:40;50.97;42.10;75.98;;
74234;Laerm;62591;55.764;37.718;2022-12-18T00:20:09;47.47;40.03;63.36;;
74234;Laerm;62591;55.764;37.718;2022-12-18T00:22:37;49.46;41.24;70.99;;
74234;Laerm;62591;55.764;37.718;2022-12-18T00:25:07;47.84;41.82;58.88;;
74234;Laerm;62591;55.764;37.718;2022-12-18T00:27:35;47.29;40.55;70.56;;
74234;Laerm;62591;55.764;37.718;2022-12-18T00:30:05;45.84;40.42;56.66;;
74234;Laerm;62591;55.764;37.718;2022-12-18T00:32:35;46.68;39.17;54.81;;
74234;Laerm;62591;55.764;37.718;2022-12-18T00:35:05;46.46;39.97;56.68;;
74234;Laerm;62591;55.764;37.718;2022-12-18T00:37:34;45.88;38.87;66.59;;
74234;Laerm;62591;55.764;37.718;2022-12-18T00:40:03;46.45;41.16;53.65;;
74234;Laerm;62591;55.764;37.718;2022-12-18T00:42:32;45.99;38.93;62.93;;
74234;Laerm;62591;55.764;37.718;2022-12-18T00:45:18;43.23;38.90;49.30;;
74234;Laerm;62591;55.764;37.718;2022-12-18T00:47:48;43.15;38.58;60.40;;
74234;Laerm;62591;55.764;37.718;2022-12-18T00:50:17;47.34;40.01;66.36;;
74234;Laerm;62591;55.764;37.718;2022-12-18T00:52:45;46.94;39.74;55.70;;
74234;Laerm;62591;55.764;37.718;2022-12-18T00:55:14;46.10;40.97;55.43;;
74234;Laerm;62591;55.764;37.718;2022-12-18T00:57:43;44.65;37.78;52.90;;
74234;Laerm;62591;55.764;37.718;2022-12-18T01:00:14;44.26;38.15;54.64;;
74234;Laerm;62591;55.764;37.718;2022-12-18T01:02:43;43.52;37.70;57.99;;
74234;Laerm;62591;55.764;37.718;2022-12-18T01:05:14;45.84;40.12;56.65;;
74234;Laerm;62591;55.764;37.718;2022-12-18T01:07:42;46.77;40.35;59.75;;
74234;Laerm;62591;55.764;37.718;2022-12-18T01:10:12;44.29;38.12;68.22;;
74234;Laerm;62591;55.764;37.718;2022-12-18T01:12:41;48.22;37.03;70.86;;
74234;Laerm;62591;55.764;37.718;2022-12-18T01:15:11;46.76;37.64;73.89;;
74234;Laerm;62591;55.764;37.718;2022-12-18T01:17:40;51.87;37.86;76.45;;
74234;Laerm;62591;55.764;37.718;2022-12-18T01:20:10;50.88;37.95;77.83;;
74234;Laerm;62591;55.764;37.718;2022-12-18T01:22:40;44.50;37.84;69.21;;
74234;Laerm;62591;55.764;37.718;2022-12-18T01:25:09;58.42;37.84;84.65;;
74234;Laerm;62591;55.764;37.718;2022-12-18T01:27:38;48.66;38.11;73.59;;
74234;Laerm;62591;55.764;37.718;2022-12-18T01:30:08;52.94;37.75;78.39;;
74234;Laerm;62591;55.764;37.718;2022-12-18T01:32:37;42.03;36.93;51.54;;
74234;Laerm;62591;55.764;37.718;2022-12-18T01:35:06;42.97;36.44;67.16;;
74234;Laerm;62591;55.764;37.718;2022-12-18T01:37:35;44.25;37.70;66.81;;
74234;Laerm;62591;55.764;37.718;2022-12-18T01:40:06;42.12;37.40;54.33;;
74234;Laerm;62591;55.764;37.718;2022-12-18T01:42:35;41.45;36.37;49.97;;
74234;Laerm;62591;55.764;37.718;2022-12-18T01:45:08;42.23;36.76;56.81;;
74234;Laerm;62591;55.764;37.718;2022-12-18T01:47:52;41.80;36.26;54.11;;
74234;Laerm;62591;55.764;37.718;2022-12-18T01:50:24;44.68;36.54;62.29;;
74234;Laerm;62591;55.764;37.718;2022-12-18T01:52:55;44.52;36.62;71.63;;
74234;Laerm;62591;55.764;37.718;2022-12-18T01:55:28;41.20;36.66;53.94;;
74234;Laerm;62591;55.764;37.718;2022-12-18T01:57:59;40.49;35.78;50.66;;
74234;Laerm;62591;55.764;37.718;2022-12-18T02:00:28;41.04;36.85;56.37;;
74234;Laerm;62591;55.764;37.718;2022-12-18T02:02:57;42.05;36.36;61.07;;
74234;Laerm;62591;55.764;37.718;2022-12-18T02:05:33;42.52;36.26;64.22;;
74234;Laerm;62591;55.764;37.718;2022-12-18T02:08:09;45.09;36.62;65.54;;
74234;Laerm;62591;55.764;37.718;2022-12-18T02:10:46;50.78;36.02;79.45;;
74234;Laerm;62591;55.764;37.718;2022-12-18T02:13:30;46.88;35.74;71.59;;
74234;Laerm;62591;55.764;37.718;2022-12-18T02:16:24;40.83;35.58;58.99;;
74234;Laerm;62591;55.764;37.718;2022-12-18T02:19:02;42.78;35.58;70.24;;
74234;Laerm;62591;55.764;37.718;2022-12-18T02:21:44;40.90;36.61;57.46;;
74234;Laerm;62591;55.764;37.718;2022-12-18T02:24:27;44.17;36.64;68.21;;
74234;Laerm;62591;55.764;37.718;2022-12-18T02:27:02;39.82;36.26;52.59;;
74234;Laerm;62591;55.764;37.718;2022-12-18T02:29:35;40.65;36.07;55.78;;
74234;Laerm;62591;55.764;37.718;2022-12-18T02:32:09;40.84;36.49;52.19;;
74234;Laerm;62591;55.764;37.718;2022-12-18T02:34:40;40.45;36.42;53.96;;
74234;Laerm;62591;55.764;37.718;2022-12-18T02:37:15;44.07;36.21;70.98;;
74234;Laerm;62591;55.764;37.718;2022-12-18T02:39:48;46.77;36.70;77.59;;
74234;Laerm;62591;55.764;37.718;2022-12-18T02:42:19;41.94;36.35;67.15;;
74234;Laerm;62591;55.764;37.718;2022-12-18T02:44:50;42.02;37.08;63.56;;
74234;Laerm;62591;55.764;37.718;2022-12-18T02:47:24;42.85;37.38;65.56;;
74234;Laerm;62591;55.764;37.718;2022-12-18T02:50:04;41.14;36.97;50.18;;
74234;Laerm;62591;55.764;37.718;2022-12-18T02:52:40;45.14;37.92;69.92;;
74234;Laerm;62591;55.764;37.718;2022-12-18T02:55:19;44.63;37.00;70.38;;
74234;Laerm;62591;55.764;37.718;2022-12-18T02:57:58;42.28;37.18;51.43;;
74234;Laerm;62591;55.764;37.718;2022-12-18T03:00:38;44.16;38.83;60.41;;
74234;Laerm;62591;55.764;37.718;2022-12-18T03:03:14;50.13;40.17;69.81;;
74234;Laerm;62591;55.764;37.718;2022-12-18T03:05:50;45.27;40.27;65.87;;
74234;Laerm;62591;55.764;37.718;2022-12-18T03:08:23;48.34;39.81;72.29;;
74234;Laerm;62591;55.764;37.718;2022-12-18T03:10:57;48.29;37.89;73.24;;
74234;Laerm;62591;55.764;37.718;2022-12-18T03:13:32;62.35;41.43;74.57;;
74234;Laerm;62591;55.764;37.718;2022-12-18T03:16:04;63.33;40.40;75.11;;
74234;Laerm;62591;55.764;37.718;2022-12-18T03:18:37;50.60;38.54;62.17;;
74234;Laerm;62591;55.764;37.718;2022-12-18T03:21:08;48.87;37.74;74.45;;
74234;Laerm;62591;55.764;37.718;2022-12-18T03:23:42;44.26;37.87;69.07;;
74234;Laerm;62591;55.764;37.718;2022-12-18T03:26:16;44.65;37.92;70.92;;
74234;Laerm;62591;55.764;37.718;2022-12-18T03:28:56;54.37;38.23;83.11;;
74234;Laerm;62591;55.764;37.718;2022-12-18T03:31:29;46.93;39.60;65.74;;
74234;Laerm;62591;55.764;37.718;2022-12-18T03:34:04;47.43;39.66;70.19;;
74234;Laerm;62591;55.764;37.718;2022-12-18T03:36:42;49.10;38.45;73.45;;
74234;Laerm;62591;55.764;37.718;2022-12-18T03:39:13;50.89;37.94;73.67;;
74234;Laerm;62591;55.764;37.718;2022-12-18T03:41:52;50.19;38.30;73.26;;
74234;Laerm;62591;55.764;37.718;2022-12-18T03:44:39;47.77;38.26;73.78;;
74234;Laerm;62591;55.764;37.718;2022-12-18T03:47:14;52.74;38.56;79.83;;
74234;Laerm;62591;55.764;37.718;2022-12-18T03:49:47;45.13;39.16;70.36;;
74234;Laerm;62591;55.764;37.718;2022-12-18T03:52:23;53.78;38.53;81.63;;
74234;Laerm;62591;55.764;37.718;2022-12-18T03:54:55;47.52;38.58;70.43;;
74234;Laerm;62591;55.764;37.718;2022-12-18T03:57:28;45.44;39.32;67.53;;
74234;Laerm;62591;55.764;37.718;2022-12-18T04:00:03;55.46;39.12;82.28;;
74234;Laerm;62591;55.764;37.718;2022-12-18T04:02:43;43.02;38.69;62.35;;
74234;Laerm;62591;55.764;37.718;2022-12-18T04:05:20;43.77;38.09;65.57;;
74234;Laerm;62591;55.764;37.718;2022-12-18T04:07:51;48.76;38.49;76.19;;
74234;Laerm;62591;55.764;37.718;2022-12-18T04:10:21;44.10;38.83;70.75;;
74234;Laerm;62591;55.764;37.718;2022-12-18T04:12:51;53.96;38.77;78.85;;
74234;Laerm;62591;55.764;37.718;2022-12-18T04:15:25;50.90;38.56;81.10;;
74234;Laerm;62591;55.764;37.718;2022-12-18T04:17:55;49.85;38.49;76.09;;
74234;Laerm;62591;55.764;37.718;2022-12-18T04:20:30;53.74;39.27;83.64;;
74234;Laerm;62591;55.764;37.718;2022-12-18T04:23:00;43.21;38.19;60.66;;
74234;Laerm;62591;55.764;37.718;2022-12-18T04:25:29;44.85;38.87;69.15;;
74234;Laerm;62591;55.764;37.718;2022-12-18T04:28:06;52.21;38.21;80.10;;
74234;Laerm;62591;55.764;37.718;2022-12-18T04:30:38;45.15;38.70;68.08;;
74234;Laerm;62591;55.764;37.718;2022-12-18T04:33:09;47.49;38.48;72.67;;
74234;Laerm;62591;55.764;37.718;2022-12-18T04:35:47;48.22;39.83;58.97;;
74234;Laerm;62591;55.764;37.718;2022-12-18T04:38:17;50.24;40.71;73.23;;
74234;Laerm;62591;55.764;37.718;2022-12-18T04:40:50;48.45;39.75;72.98;;
74234;Laerm;62591;55.764;37.718;2022-12-18T04:43:24;48.70;39.12;72.27;;
74234;Laerm;62591;55.764;37.718;2022-12-18T04:46:01;41.93;38.03;51.49;;
74234;Laerm;62591;55.764;37.718;2022-12-18T04:48:30;44.13;37.84;68.27;;
74234;Laerm;62591;55.764;37.718;2022-12-18T04:50:58;54.19;37.70;81.96;;
74234;Laerm;62591;55.764;37.718;2022-12-18T04:53:27;43.07;37.90;56.41;;
74234;Laerm;62591;55.764;37.718;2022-12-18T04:56:04;49.21;38.41;71.39;;
74234;Laerm;62591;55.764;37.718;2022-12-18T04:58:32;43.79;38.07;72.41;;
74234;Laerm;62591;55.764;37.718;2022-12-18T05:01:03;42.98;37.26;68.23;;
74234;Laerm;62591;55.764;37.718;2022-12-18T05:03:31;41.61;36.53;56.92;;
74234;Laerm;62591;55.764;37.718;2022-12-18T05:06:00;45.48;39.61;54.27;;
74234;Laerm;62591;55.764;37.718;2022-12-18T05:08:29;42.49;38.97;59.98;;
74234;Laerm;62591;55.764;37.718;2022-12-18T05:11:02;46.50;38.48;67.83;;
74234;Laerm;62591;55.764;37.718;2022-12-18T05:13:32;48.89;38.65;66.80;;
74234;Laerm;62591;55.764;37.718;2022-12-18T05:16:02;49.89;38.87;76.47;;
74234;Laerm;62591;55.764;37.718;2022-12-18T05:18:31;44.29;38.42;68.12;;
74234;Laerm;62591;55.764;37.718;2022-12-18T05:21:00;44.11;41.16;59.11;;
74234;Laerm;62591;55.764;37.718;2022-12-18T05:23:29;45.22;38.73;56.85;;
74234;Laerm;62591;55.764;37.718;2022-12-18T05:25:58;47.30;39.09;71.46;;
74234;Laerm;62591;55.764;37.718;2022-12-18T05:28:28;43.32;38.19;67.73;;
74234;Laerm;62591;55.764;37.718;2022-12-18T05:30:59;45.60;40.44;73.34;;
74234;Laerm;62591;55.764;37.718;2022-12-18T05:33:32;44.15;39.23;65.73;;
74234;Laerm;62591;55.764;37.718;2022-12-18T05:36:01;51.40;39.95;74.25;;
74234;Laerm;62591;55.764;37.718;2022-12-18T05:38:32;44.56;39.19;60.13;;
74234;Laerm;62591;55.764;37.718;2022-12-18T05:41:01;48.29;40.92;72.51;;
74234;Laerm;62591;55.764;37.718;2022-12-18T05:43:30;45.77;39.62;60.44;;
74234;Laerm;62591;55.764;37.718;2022-12-18T05:46:03;49.23;39.90;71.89;;
74234;Laerm;62591;55.764;37.718;2022-12-18T05:48:34;50.71;40.02;76.05;;
74234;Laerm;62591;55.764;37.718;2022-12-18T05:51:06;48.14;38.97;74.47;;
74234;Laerm;62591;55.764;37.718;2022-12-18T05:53:35;55.22;38.51;83.03;;
74234;Laerm;62591;55.764;37.718;2022-12-18T05:56:06;43.54;38.38;61.19;;
74234;Laerm;62591;55.764;37.718;2022-12-18T05:58:35;43.00;37.78;59.34;;
74234;Laerm;62591;55.764;37.718;2022-12-18T06:01:08;43.72;38.17;66.77;;
74234;Laerm;62591;55.764;37.718;2022-12-18T06:03:38;47.47;38.00;62.49;;
74234;Laerm;62591;55.764;37.718;2022-12-18T06:06:15;45.90;38.61;71.14;;
74234;Laerm;62591;55.764;37.718;2022-12-18T06:08:45;42.93;37.58;62.51;;
74234;Laerm;62591;55.764;37.718;2022-12-18T06:11:16;45.81;40.39;60.35;;
74234;Laerm;62591;55.764;37.718;2022-12-18T06:13:45;51.83;39.66;76.70;;
74234;Laerm;62591;55.764;37.718;2022-12-18T06:16:14;44.51;39.27;57.99;;
74234;Laerm;62591;55.764;37.718;2022-12-18T06:18:44;50.00;39.61;74.90;;
74234;Laerm;62591;55.764;37.718;2022-12-18T06:21:13;45.47;39.34;69.52;;
74234;Laerm;62591;55.764;37.718;2022-12-18T06:23:41;43.29;39.33;57.51;;
74234;Laerm;62591;55.764;37.718;2022-12-18T06:26:12;45.82;41.12;55.95;;
74234;Laerm;62591;55.764;37.718;2022-12-18T06:28:41;48.74;40.46;67.32;;
74234;Laerm;62591;55.764;37.718;2022-12-18T06:31:10;52.23;39.81;69.90;;
74234;Laerm;62591;55.764;37.718;2022-12-18T06:33:39;64.55;40.70;74.20;;
74234;Laerm;62591;55.764;37.718;2022-12-18T06:36:11;58.48;41.31;76.37;;
74234;Laerm;62591;55.764;37.718;2022-12-18T06:38:42;48.67;40.45;67.89;;
74234;Laerm;62591;55.764;37.718;2022-12-18T06:41:12;44.72;39.83;56.86;;
74234;Laerm;62591;55.764;37.718;2022-12-18T06:43:41;45.39;39.98;64.78;;
74234;Laerm;62591;55.764;37.718;2022-12-18T06:46:10;43.12;38.99;61.56;;
74234;Laerm;62591;55.764;37.718;2022-12-18T06:48:39;42.38;38.09;59.32;;
74234;Laerm;62591;55.764;37.718;2022-12-18T06:51:09;46.41;38.10;69.07;;
74234;Laerm;62591;55.764;37.718;2022-12-18T06:53:38;42.88;37.71;62.75;;
74234;Laerm;62591;55.764;37.718;2022-12-18T06:56:07;42.91;38.65;59.79;;
74234;Laerm;62591;55.764;37.718;2022-12-18T06:58:37;44.72;39.59;57.45;;
74234;Laerm;62591;55.764;37.718;2022-12-18T07:01:07;44.64;38.41;66.03;;
74234;Laerm;62591;55.764;37.718;2022-12-18T07:03:36;46.99;39.18;71.48;;
74234;Laerm;62591;55.764;37.718;2022-12-18T07:06:06;50.89;40.82;75.85;;
74234;Laerm;62591;55.764;37.718;2022-12-18T07:08:36;46.01;39.88;64.49;;
74234;Laerm;62591;55.764;37.718;2022-12-18T07:11:04;48.14;37.79;68.72;;
74234;Laerm;62591;55.764;37.718;2022-12-18T07:13:33;49.60;39.76;74.19;;
74234;Laerm;62591;55.764;37.718;2022-12-18T07:16:06;48.91;39.95;73.66;;
74234;Laerm;62591;55.764;37.718;2022-12-18T07:18:43;49.22;39.28;73.16;;
74234;Laerm;62591;55.764;37.718;2022-12-18T07:21:13;49.77;39.80;73.07;;
74234;Laerm;62591;55.764;37.718;2022-12-18T07:23:44;48.64;39.07;72.23;;
74234;Laerm;62591;55.764;37.718;2022-12-18T07:26:17;47.65;40.91;68.00;;
74234;Laerm;62591;55.764;37.718;2022-12-18T07:28:48;50.77;39.99;72.02;;
74234;Laerm;62591;55.764;37.718;2022-12-18T07:31:19;47.80;39.67;73.75;;
74234;Laerm;62591;55.764;37.718;2022-12-18T07:33:48;51.61;40.87;69.66;;
74234;Laerm;62591;55.764;37.718;2022-12-18T07:36:18;49.62;41.91;73.48;;
74234;Laerm;62591;55.764;37.718;2022-12-18T07:38:48;45.36;38.51;67.65;;
74234;Laerm;62591;55.764;37.718;2022-12-18T07:41:17;52.84;40.44;79.40;;
74234;Laerm;62591;55.764;37.718;2022-12-18T07:43:46;45.80;40.37;69.57;;
74234;Laerm;62591;55.764;37.718;2022-12-18T07:46:17;50.91;39.51;79.79;;
74234;Laerm;62591;55.764;37.718;2022-12-18T07:48:46;43.81;38.57;56.38;;
74234;Laerm;62591;55.764;37.718;2022-12-18T07:51:17;44.19;39.40;66.83;;
74234;Laerm;62591;55.764;37.718;2022-12-18T07:53:45;50.88;39.13;75.25;;
74234;Laerm;62591;55.764;37.718;2022-12-18T07:56:20;46.88;40.62;63.62;;
74234;Laerm;62591;55.764;37.718;2022-12-18T07:58:54;50.31;40.34;73.47;;
74234;Laerm;62591;55.764;37.718;2022-12-18T08:01:23;47.06;39.36;65.39;;
74234;Laerm;62591;55.764;37.718;2022-12-18T08:03:53;43.45;39.37;53.26;;
74234;Laerm;62591;55.764;37.718;2022-12-18T08:06:23;48.90;40.67;72.36;;
74234;Laerm;62591;55.764;37.718;2022-12-18T08:08:52;44.88;39.48;64.82;;
74234;Laerm;62591;55.764;37.718;2022-12-18T08:11:24;44.02;40.10;57.54;;
74234;Laerm;62591;55.764;37.718;2022-12-18T08:13:53;45.74;40.49;67.20;;
74234;Laerm;62591;55.764;37.718;2022-12-18T08:16:22;46.26;40.74;62.09;;
74234;Laerm;62591;55.764;37.718;2022-12-18T08:18:51;48.47;40.73;66.25;;
74234;Laerm;62591;55.764;37.718;2022-12-18T08:21:22;50.90;41.05;76.49;;
74234;Laerm;62591;55.764;37.718;2022-12-18T08:23:52;46.90;41.05;66.19;;
74234;Laerm;62591;55.764;37.718;2022-12-18T08:26:24;43.85;40.46;64.24;;
74234;Laerm;62591;55.764;37.718;2022-12-18T08:28:54;43.76;39.78;59.89;;
74234;Laerm;62591;55.764;37.718;2022-12-18T08:31:24;46.28;39.87;67.51;;
74234;Laerm;62591;55.764;37.718;2022-12-18T08:33:54;44.32;39.77;57.25;;
74234;Laerm;62591;55.764;37.718;2022-12-18T08:36:23;43.89;38.74;54.45;;
74234;Laerm;62591;55.764;37.718;2022-12-18T08:38:53;44.55;39.21;66.81;;
74234;Laerm;62591;55.764;37.718;2022-12-18T08:41:23;44.99;39.41;66.93;;
74234;Laerm;62591;55.764;37.718;2022-12-18T08:43:52;43.46;39.92;54.54;;
74234;Laerm;62591;55.764;37.718;2022-12-18T08:46:53;43.24;39.36;54.55;;
74234;Laerm;62591;55.764;37.718;2022-12-18T08:49:23;43.54;39.36;58.97;;
74234;Laerm;62591;55.764;37.718;2022-12-18T08:51:54;44.40;39.99;62.69;;
74234;Laerm;62591;55.764;37.718;2022-12-18T08:54:24;46.93;40.27;66.78;;
74234;Laerm;62591;55.764;37.718;2022-12-18T08:56:54;45.02;40.18;67.25;;
74234;Laerm;62591;55.764;37.718;2022-12-18T08:59:23;48.90;39.65;79.08;;
74234;Laerm;62591;55.764;37.718;2022-12-18T09:01:57;52.48;39.72;73.49;;
74234;Laerm;62591;55.764;37.718;2022-12-18T09:04:26;49.82;41.64;70.84;;
74234;Laerm;62591;55.764;37.718;2022-12-18T09:06:55;48.71;39.56;65.55;;
74234;Laerm;62591;55.764;37.718;2022-12-18T09:09:23;52.24;40.27;75.67;;
74234;Laerm;62591;55.764;37.718;2022-12-18T09:11:53;53.50;39.60;75.39;;
74234;Laerm;62591;55.764;37.718;2022-12-18T09:14:22;53.62;40.22;74.20;;
74234;Laerm;62591;55.764;37.718;2022-12-18T09:16:50;53.91;40.24;71.58;;
74234;Laerm;62591;55.764;37.718;2022-12-18T09:19:19;51.76;39.62;74.61;;
74234;Laerm;62591;55.764;37.718;2022-12-18T09:21:48;44.49;38.13;58.36;;
74234;Laerm;62591;55.764;37.718;2022-12-18T09:24:16;47.37;39.16;72.81;;
74234;Laerm;62591;55.764;37.718;2022-12-18T09:26:45;46.26;38.80;62.78;;
74234;Laerm;62591;55.764;37.718;2022-12-18T09:29:15;51.06;40.15;71.11;;
74234;Laerm;62591;55.764;37.718;2022-12-18T09:31:45;49.56;39.47;74.16;;
74234;Laerm;62591;55.764;37.718;2022-12-18T09:34:13;43.70;39.39;59.65;;
74234;Laerm;62591;55.764;37.718;2022-12-18T09:36:42;54.67;39.99;85.85;;
74234;Laerm;62591;55.764;37.718;2022-12-18T09:39:13;56.19;41.05;83.17;;
74234;Laerm;62591;55.764;37.718;2022-12-18T09:41:45;51.28;39.93;81.07;;
74234;Laerm;62591;55.764;37.718;2022-12-18T09:44:23;45.71;39.98;63.59;;
74234;Laerm;62591;55.764;37.718;2022-12-18T09:47:04;45.99;39.69;56.95;;
74234;Laerm;62591;55.764;37.718;2022-12-18T09:49:40;51.24;41.33;71.18;;
74234;Laerm;62591;55.764;37.718;2022-12-18T09:52:16;45.85;39.79;55.20;;
74234;Laerm;62591;55.764;37.718;2022-12-18T09:54:50;49.31;40.07;78.51;;
74234;Laerm;62591;55.764;37.718;2022-12-18T09:57:22;44.92;39.65;66.17;;
74234;Laerm;62591;55.764;37.718;2022-12-18T09:59:55;47.07;38.18;73.49;;
74234;Laerm;62591;55.764;37.718;2022-12-18T10:02:26;49.39;40.08;71.53;;
74234;Laerm;62591;55.764;37.718;2022-12-18T10:05:05;51.63;40.27;76.61;;
74234;Laerm;62591;55.764;37.718;2022-12-18T10:07:43;44.89;40.17;59.57;;
74234;Laerm;62591;55.764;37.718;2022-12-18T10:10:23;48.94;44.99;64.17;;
74234;Laerm;62591;55.764;37.718;2022-12-18T10:13:00;47.76;40.35;64.36;;
74234;Laerm;62591;55.764;37.718;2022-12-18T10:15:36;48.17;41.29;74.86;;
74234;Laerm;62591;55.764;37.718;2022-12-18T10:18:21;44.90;40.39;61.36;;
74234;Laerm;62591;55.764;37.718;2022-12-18T10:20:55;47.25;40.94;67.01;;
74234;Laerm;62591;55.764;37.718;2022-12-18T10:23:29;49.40;39.52;72.81;;
74234;Laerm;62591;55.764;37.718;2022-12-18T10:26:03;50.93;39.96;76.76;;
74234;Laerm;62591;55.764;37.718;2022-12-18T10:28:33;44.97;39.96;67.44;;
74234;Laerm;62591;55.764;37.718;2022-12-18T10:31:07;51.05;40.05;77.31;;
74234;Laerm;62591;55.764;37.718;2022-12-18T10:33:36;48.96;40.25;67.08;;
74234;Laerm;62591;55.764;37.718;2022-12-18T10:36:05;48.08;40.81;69.69;;
74234;Laerm;62591;55.764;37.718;2022-12-18T10:38:34;55.94;40.18;81.95;;
74234;Laerm;62591;55.764;37.718;2022-12-18T10:41:04;44.54;39.43;63.94;;
74234;Laerm;62591;55.764;37.718;2022-12-18T10:43:34;48.23;38.96;75.94;;
74234;Laerm;62591;55.764;37.718;2022-12-18T10:46:16;44.88;39.28;59.57;;
74234;Laerm;62591;55.764;37.718;2022-12-18T10:48:51;43.58;39.83;60.37;;
74234;Laerm;62591;55.764;37.718;2022-12-18T10:51:23;44.53;39.07;54.12;;
74234;Laerm;62591;55.764;37.718;2022-12-18T10:53:55;46.38;40.38;65.90;;
74234;Laerm;62591;55.764;37.718;2022-12-18T10:56:27;44.87;39.72;66.18;;
74234;Laerm;62591;55.764;37.718;2022-12-18T10:58:58;47.07;39.77;69.20;;
74234;Laerm;62591;55.764;37.718;2022-12-18T11:01:33;42.98;38.88;53.73;;
74234;Laerm;62591;55.764;37.718;2022-12-18T11:04:18;51.25;39.54;77.78;;
74234;Laerm;62591;55.764;37.718;2022-12-18T11:06:56;49.46;40.15;69.20;;
74234;Laerm;62591;55.764;37.718;2022-12-18T11:09:26;44.79;39.29;63.32;;
74234;Laerm;62591;55.764;37.718;2022-12-18T11:11:56;43.08;38.93;52.22;;
74234;Laerm;62591;55.764;37.718;2022-12-18T11:14:28;43.74;38.95;63.47;;
74234;Laerm;62591;55.764;37.718;2022-12-18T11:17:01;44.46;39.60;67.73;;
74234;Laerm;62591;55.764;37.718;2022-12-18T11:19:53;44.40;39.82;64.97;;
74234;Laerm;62591;55.764;37.718;2022-12-18T11:22:24;45.95;38.61;65.73;;
74234;Laerm;62591;55.764;37.718;2022-12-18T11:24:57;41.77;38.91;51.96;;
74234;Laerm;62591;55.764;37.718;2022-12-18T11:27:52;42.30;38.95;54.00;;
74234;Laerm;62591;55.764;37.718;2022-12-18T11:30:23;43.90;39.73;65.03;;
74234;Laerm;62591;55.764;37.718;2022-12-18T11:32:56;44.94;40.51;62.84;;
74234;Laerm;62591;55.764;37.718;2022-12-18T11:35:35;49.31;39.83;62.23;;
74234;Laerm;62591;55.764;37.718;2022-12-18T11:38:12;48.04;40.69;74.69;;
74234;Laerm;62591;55.764;37.718;2022-12-18T11:40:47;43.76;39.68;53.36;;
74234;Laerm;62591;55.764;37.718;2022-12-18T11:43:23;45.57;41.26;68.42;;
74234;Laerm;62591;55.764;37.718;2022-12-18T11:45:56;47.88;41.04;69.91;;
74234;Laerm;62591;55.764;37.718;2022-12-18T11:48:31;47.89;42.08;63.51;;
74234;Laerm;62591;55.764;37.718;2022-12-18T11:51:03;51.91;41.71;80.07;;
74234;Laerm;62591;55.764;37.718;2022-12-18T11:53:33;43.46;38.95;56.58;;
74234;Laerm;62591;55.764;37.718;2022-12-18T11:56:18;45.71;40.44;67.26;;
74234;Laerm;62591;55.764;37.718;2022-12-18T11:58:56;46.44;40.00;72.68;;
74234;Laerm;62591;55.764;37.718;2022-12-18T12:01:36;47.86;40.38;69.88;;
74234;Laerm;62591;55.764;37.718;2022-12-18T12:04:43;48.17;40.02;69.82;;
74234;Laerm;62591;55.764;37.718;2022-12-18T12:07:27;43.78;40.15;60.63;;
74234;Laerm;62591;55.764;37.718;2022-12-18T12:10:13;45.60;40.77;62.42;;
74234;Laerm;62591;55.764;37.718;2022-12-18T12:12:55;45.35;41.30;54.40;;
74234;Laerm;62591;55.764;37.718;2022-12-18T12:15:34;46.21;40.82;65.33;;
74234;Laerm;62591;55.764;37.718;2022-12-18T12:18:19;45.95;40.50;64.46;;
74234;Laerm;62591;55.764;37.718;2022-12-18T12:20:59;46.74;40.30;65.97;;
74234;Laerm;62591;55.764;37.718;2022-12-18T12:23:37;46.45;40.99;66.05;;
74234;Laerm;62591;55.764;37.718;2022-12-18T12:26:12;47.37;41.08;67.92;;
74234;Laerm;62591;55.764;37.718;2022-12-18T12:29:02;48.93;40.70;71.75;;
74234;Laerm;62591;55.764;37.718;2022-12-18T12:31:47;46.56;41.03;69.85;;
74234;Laerm;62591;55.764;37.718;2022-12-18T12:34:23;45.11;39.81;67.39;;
74234;Laerm;62591;55.764;37.718;2022-12-18T12:37:06;44.54;39.85;56.64;;
74234;Laerm;62591;55.764;37.718;2022-12-18T12:40:00;44.17;40.08;58.07;;
74234;Laerm;62591;55.764;37.718;2022-12-18T12:42:53;46.36;39.55;58.71;;
74234;Laerm;62591;55.764;37.718;2022-12-18T12:45:44;48.24;41.18;62.50;;
74234;Laerm;62591;55.764;37.718;2022-12-18T12:48:27;44.24;40.06;56.62;;
74234;Laerm;62591;55.764;37.718;2022-12-18T12:51:13;52.31;40.53;78.46;;
74234;Laerm;62591;55.764;37.718;2022-12-18T12:54:26;44.86;39.73;59.24;;
74234;Laerm;62591;55.764;37.718;2022-12-18T12:57:01;48.38;40.73;58.59;;
74234;Laerm;62591;55.764;37.718;2022-12-18T12:59:39;50.91;42.03;65.46;;
74234;Laerm;62591;55.764;37.718;2022-12-18T13:02:15;61.39;42.48;74.35;;
74234;Laerm;62591;55.764;37.718;2022-12-18T13:04:51;63.22;53.64;73.35;;
74234;Laerm;62591;55.764;37.718;2022-12-18T13:07:27;63.73;53.98;71.98;;
74234;Laerm;62591;55.764;37.718;2022-12-18T13:10:26;58.62;43.88;69.95;;
74234;Laerm;62591;55.764;37.718;2022-12-18T13:13:00;58.23;42.77;70.64;;
74234;Laerm;62591;55.764;37.718;2022-12-18T13:15:40;61.61;42.32;73.29;;
74234;Laerm;62591;55.764;37.718;2022-12-18T13:18:15;54.34;39.71;67.88;;
74234;Laerm;62591;55.764;37.718;2022-12-18T13:21:02;48.01;40.32;76.82;;
74234;Laerm;62591;55.764;37.718;2022-12-18T13:23:34;49.19;39.89;79.12;;
74234;Laerm;62591;55.764;37.718;2022-12-18T13:26:33;44.44;39.40;56.50;;
74234;Laerm;62591;55.764;37.718;2022-12-18T13:29:03;46.51;40.01;62.61;;
74234;Laerm;62591;55.764;37.718;2022-12-18T13:34:30;54.66;40.19;76.84;;
74234;Laerm;62591;55.764;37.718;2022-12-18T13:43:32;47.62;40.20;69.61;;
74234;Laerm;62591;55.764;37.718;2022-12-18T13:46:05;46.52;40.77;64.15;;
74234;Laerm;62591;55.764;37.718;2022-12-18T13:48:37;48.35;40.84;70.36;;
74234;Laerm;62591;55.764;37.718;2022-12-18T13:51:10;47.49;40.95;67.64;;
74234;Laerm;62591;55.764;37.718;2022-12-18T13:53:43;47.45;41.28;68.19;;
74234;Laerm;62591;55.764;37.718;2022-12-18T13:56:15;46.02;41.21;60.15;;
74234;Laerm;62591;55.764;37.718;2022-12-18T13:58:46;47.58;41.19;63.83;;
74234;Laerm;62591;55.764;37.718;2022-12-18T14:01:24;46.82;40.83;64.77;;
74234;Laerm;62591;55.764;37.718;2022-12-18T14:04:09;45.88;41.63;60.84;;
74234;Laerm;62591;55.764;37.718;2022-12-18T14:06:38;47.66;43.34;58.02;;
74234;Laerm;62591;55.764;37.718;2022-12-18T14:09:11;48.27;42.74;71.33;;
74234;Laerm;62591;55.764;37.718;2022-12-18T14:11:47;48.55;43.17;67.83;;
74234;Laerm;62591;55.764;37.718;2022-12-18T14:14:19;45.09;41.94;56.77;;